• Join FlightAware (Why Join?)
  • Login
  • US Flag 
05:01PM EST


 

Airport Tracker/Info


-or-


 

Live Flight TrackerFlight Track Log ✈ N8088H ✈ 08-Aug-2014 ✈ KMTH - KTPF

Flight Track Log - Related Links

Times and Time Zones

All times are in EDT time to prevent confusion due to time zone crossing. See the N8088H flight status page for this flight to view local times or setup timezone preferences in your user account.

Time Position Orientation Groundspeed Altitude Reporting Facility
EDT Latitude Longitude Course Direction KTS MPH feet Rate Location/Type
11:11AM 24.8217 -81.1050 341° North 109 125 1,800  Level Miami Center
11:12AM 24.8519 -81.1181 339° North 110 127 2,000 300 Climbing Miami Center
11:13AM 24.8814 -81.1333 335° Northwest 112 129 2,500 420 Climbing Miami Center
11:14AM 24.9111 -81.1486 335° Northwest 114 131 2,900 180 Climbing Miami Center
11:15AM 24.9508 -81.1614 344° North 119 137 2,900  Level Miami Center
11:16AM 24.9853 -81.1719 344° North 125 144 2,900  Level Miami Center
11:17AM 24.9141 -81.1345 341° North  Level FlightAware Approximate
11:17AM 25.0200 -81.1789 350° North 126 145 2,900  Level Miami Center
11:18AM 25.0531 -81.1864 348° North 124 143 3,400 480 Climbing Miami Center
11:20AM 25.0819 -81.1933 348° North 112 129 3,900 480 Climbing Miami Center
11:21AM 25.1117 -81.2011 347° North 111 128 4,400 480 Climbing Miami Center
11:22AM 25.1492 -81.2089 349° North 111 128 4,900 420 Climbing Miami Center
11:23AM 25.1800 -81.2161 348° North 112 129 5,300 360 Climbing Miami Center
11:24AM 25.2100 -81.2233 348° North 111 128 5,700 420 Climbing Miami Center
11:25AM 25.2411 -81.2322 346° North 112 129 6,200 480 Climbing Miami Center
11:26AM 25.2717 -81.2392 348° North 112 129 6,700 480 Climbing Miami Center
11:27AM 25.3069 -81.2469 349° North 112 129 7,200 480 Climbing Miami Center
11:28AM 25.3375 -81.2533 349° North 111 128 7,700 360 Climbing Miami Center
11:29AM 25.3700 -81.2592 351° North 112 129 8,000 60 Climbing Miami Center
11:30AM 25.4058 -81.2661 350° North 118 136 7,900 -120 Descending Miami Center
11:31AM 25.4428 -81.2786 343° North 128 147 7,800 -60 Descending Miami Center
11:32AM 25.4803 -81.2939 340° North 135 155 7,800  Level Miami Center
11:33AM 25.5231 -81.3136 337° Northwest 137 158 7,900 60 Climbing Miami Center
11:34AM 25.5575 -81.3286 339° North 137 158 8,000  Climbing Miami Center
11:35AM 25.5914 -81.3442 338° Northwest 136 157 8,000 -60 Level Miami Center
11:36AM 25.6269 -81.3592 339° North 136 157 7,900 -60 Descending Miami Center
11:37AM 25.6622 -81.3742 339° North 136 157 7,900  Level Miami Center
11:38AM 25.7031 -81.3911 339° North 136 157 7,900  Level Miami Center
11:39AM 25.7414 -81.4064 340° North 136 157 8,000  Climbing Miami Center
11:40AM 25.7761 -81.4217 338° Northwest 136 157 7,900  Descending Miami Center
11:41AM 25.8139 -81.4389 338° Northwest 136 157 8,000  Climbing Miami Center
11:42AM 25.8519 -81.4553 339° North 136 157 8,000  Level Miami Center
11:43AM 25.8861 -81.4697 339° North 135 155 8,000 -60 Level Miami Center
11:44AM 25.9236 -81.4858 339° North 135 155 7,900 -60 Descending Miami Center
11:45AM 25.9586 -81.4972 344° North 134 154 7,900  Level Miami Center
11:46AM 25.9967 -81.5097 344° North 134 154 7,900  Level Miami Center
11:47AM 26.0294 -81.5261 336° Northwest 134 154 7,900  Level Miami Center
11:49AM 26.0644 -81.5458 333° Northwest 133 153 7,900  Level Miami Center
11:50AM 26.0972 -81.5647 333° Northwest 133 153 7,900  Level Miami Center
11:51AM 26.1319 -81.5839 334° Northwest 133 153 7,900  Level Miami Center
11:52AM 26.1650 -81.6017 334° Northwest 132 152 7,900  Level Miami Center
11:53AM 26.2011 -81.6211 334° Northwest 133 153 7,900  Level Miami Center
11:54AM 26.2342 -81.6394 334° Northwest 133 153 7,900  Level Miami Center
11:55AM 26.2703 -81.6603 333° Northwest 133 153 7,900  Level Miami Center
11:56AM 26.3058 -81.6814 332° Northwest 134 154 7,900  Level Miami Center
11:57AM 26.3411 -81.7008 334° Northwest 140 161 7,900  Level Miami Center
11:58AM 26.3786 -81.7211 334° Northwest 140 161 7,900  Level Miami Center
11:59AM 26.4122 -81.7408 332° Northwest 140 161 7,900  Level Miami Center
12:00PM 26.4483 -81.7628 331° Northwest 139 160 7,900  Level Miami Center
12:01PM 26.4825 -81.7833 332° Northwest 139 160 7,900  Level Miami Center
12:02PM 26.5203 -81.8056 332° Northwest 140 161 7,900  Level Miami Center
12:03PM 26.5553 -81.8275 331° Northwest 142 163 7,900  Level Miami Center
12:04PM 26.5908 -81.8478 333° Northwest 145 167 7,900  Level Miami Center
12:05PM 26.6289 -81.8694 333° Northwest 145 167 7,900  Level Miami Center
12:06PM 26.6647 -81.8894 333° Northwest 144 166 7,900  Level Miami Center
12:07PM 26.7033 -81.9111 333° Northwest 144 166 7,900  Level Miami Center
12:08PM 26.7419 -81.9317 335° Northwest 144 166 7,900  Level Miami Center
12:09PM 26.7775 -81.9503 335° Northwest 144 166 7,900  Level Miami Center
12:10PM 26.8169 -81.9708 335° Northwest 144 166 7,900  Level Miami Center
12:11PM 26.8533 -81.9894 335° Northwest 145 167 7,900  Level Miami Center
12:12PM 26.8911 -82.0133 331° Northwest 146 168 7,900  Level Miami Center
12:13PM 26.9253 -82.0358 330° Northwest 144 166 7,900  Level Miami Center
12:14PM 26.9600 -82.0625 326° Northwest 143 165 7,900  Level Miami Center
12:15PM 26.9933 -82.0872 327° Northwest 145 167 7,900  Level Miami Center
12:16PM 27.0294 -82.1136 327° Northwest 145 167 7,900  Level Miami Center
12:17PM 27.0517 -82.1489 305° West 142 163 7,900  Level Miami Center
12:19PM 27.0692 -82.1847 299° West 134 154 7,900  Level Miami Center
12:20PM 27.0872 -82.2211 299° West 133 153 7,900  Level Miami Center
12:21PM 27.1064 -82.2594 299° West 140 161 7,900  Level Miami Center
12:22PM 27.1294 -82.3044 300° West 140 161 7,900  Level Miami Center
12:23PM 27.1483 -82.3417 300° West 140 161 7,900  Level Miami Center
12:24PM 27.1656 -82.3803 297° West 139 160 7,900  Level Miami Center
12:24PM 27.1667 -82.4000 274° West 134 154 7,900  Level Tampa TRACON
12:25PM 27.2000 -82.4333 318° Northwest 133 153 7,900  Level Tampa TRACON
12:26PM 27.2167 -82.4667 299° West 139 160 7,900  Level Tampa TRACON
12:27PM 27.2500 -82.4833 336° Northwest 148 170 7,900 -120 Level Tampa TRACON
12:28PM 27.3000 -82.4833 360° North 150 173 7,700 -300 Descending Tampa TRACON
12:29PM 27.3333 -82.5000 336° Northwest 158 182 7,300 -420 Descending Tampa TRACON
12:30PM 27.3833 -82.4833 16° North 153 176 6,900 -300 Descending Tampa TRACON
12:31PM 27.4333 -82.4833 360° North 145 167 6,700 -240 Descending Tampa TRACON
12:32PM 27.4667 -82.4667 24° Northeast 147 169 6,400 -360 Descending Tampa TRACON
12:33PM 27.5167 -82.4667 360° North 151 174 6,000 -600 Descending Tampa TRACON
12:34PM 27.5500 -82.4667 360° North 160 184 5,400 -900 Descending Tampa TRACON
12:35PM 27.6000 -82.4500 16° North 170 196 4,400 -840 Descending Tampa TRACON
12:36PM 27.6500 -82.4500 360° North 169 194 3,600 -600 Descending Tampa TRACON
12:37PM 27.6833 -82.4333 24° Northeast 152 175 3,200 -480 Descending Tampa TRACON
12:38PM 27.7167 -82.4167 24° Northeast 150 173 2,800 -540 Descending Tampa TRACON
12:39PM 27.7667 -82.4000 16° North 153 176 2,200 -540 Descending Tampa TRACON
12:40PM 27.8000 -82.4000 360° North 153 176 1,800 -480 Descending Tampa TRACON